Time;durP1;ratioP1;P1;durP2;ratioP2;P2;SDS_P1;SDS_P2;PMS_P1;PMS_P2;Temp;Humidity;BMP_temperature;BMP_pressure;BME280_temperature;BME280_humidity;BME280_pressure;Samples;Min_cycle;Max_cycle;Signal;HPM_P1;HPM_P2
2021/11/14 00:00:51;;;;;;;26.30;13.82;;;8.40;99.90;;;;;;4891404;29;20132;-87
2021/11/14 00:03:17;;;;;;;34.58;15.27;;;8.40;99.90;;;;;;4907234;29;20445;-87
2021/11/14 00:05:46;;;;;;;27.38;14.98;;;8.40;99.90;;;;;;4883946;29;20048;-87
2021/11/14 00:08:14;;;;;;;28.98;13.93;;;8.40;99.90;;;;;;4891463;29;20502;-87
2021/11/14 00:10:43;;;;;;;28.38;13.60;;;8.40;99.90;;;;;;4891200;29;20041;-87
2021/11/14 00:13:09;;;;;;;31.00;16.37;;;8.40;99.90;;;;;;4891095;29;20131;-87
2021/11/14 00:15:35;;;;;;;27.85;13.63;;;8.40;99.90;;;;;;4890252;29;20066;-88
2021/11/14 00:18:01;;;;;;;34.45;16.13;;;8.40;99.90;;;;;;4891154;29;20073;-87
2021/11/14 00:20:28;;;;;;;42.78;18.20;;;8.40;99.90;;;;;;4891197;29;20036;-87
2021/11/14 00:22:54;;;;;;;30.45;14.98;;;8.40;99.90;;;;;;4891187;29;20043;-87
2021/11/14 00:25:19;;;;;;;40.05;16.42;;;8.40;99.90;;;;;;4922401;29;20067;-87
2021/11/14 00:27:51;;;;;;;33.50;15.05;;;8.40;99.90;;;;;;4949829;29;20499;-87
2021/11/14 00:30:21;;;;;;;37.28;17.48;;;8.40;99.90;;;;;;4948228;29;20056;-87
2021/11/14 00:32:50;;;;;;;43.38;17.80;;;8.40;99.90;;;;;;4948485;29;20031;-87
2021/11/14 00:35:16;;;;;;;36.45;17.60;;;8.40;99.90;;;;;;4948630;29;20032;-88
2021/11/14 00:37:42;;;;;;;48.17;18.48;;;8.50;99.90;;;;;;4948247;29;20083;-87
2021/11/14 00:40:14;;;;;;;54.60;19.23;;;8.40;99.90;;;;;;4948592;29;20028;-87
2021/11/14 00:42:40;;;;;;;30.73;14.82;;;8.40;99.90;;;;;;4948402;29;20040;-88
2021/11/14 00:45:07;;;;;;;36.67;18.25;;;8.40;99.90;;;;;;4949578;29;20028;-87
2021/11/14 00:47:33;;;;;;;30.45;15.48;;;8.40;99.90;;;;;;4947892;29;20060;-87
2021/11/14 00:49:58;;;;;;;33.05;15.05;;;8.50;99.90;;;;;;4948337;29;20035;-87
2021/11/14 00:52:24;;;;;;;34.35;17.27;;;8.50;99.90;;;;;;4947865;29;20452;-87
2021/11/14 00:54:50;;;;;;;28.52;14.15;;;8.50;99.90;;;;;;4948178;29;20037;-87
2021/11/14 00:57:15;;;;;;;36.38;14.45;;;8.50;99.90;;;;;;4947722;29;20047;-88
2021/11/14 00:59:41;;;;;;;26.38;14.02;;;8.50;99.90;;;;;;4932328;29;20034;-87
2021/11/14 01:02:07;;;;;;;35.47;15.07;;;8.50;99.90;;;;;;4947939;29;20032;-88
2021/11/14 01:04:33;;;;;;;26.55;12.77;;;8.50;99.90;;;;;;4947909;29;20028;-87
2021/11/14 01:06:58;;;;;;;39.83;16.48;;;8.60;99.90;;;;;;4947727;29;20059;-87
2021/11/14 01:09:26;;;;;;;31.15;14.80;;;8.50;99.90;;;;;;4947839;29;20028;-88
2021/11/14 01:11:52;;;;;;;34.22;14.40;;;8.50;99.90;;;;;;4947929;29;20035;-88
2021/11/14 01:14:17;;;;;;;30.27;15.55;;;8.50;99.90;;;;;;4948009;29;20024;-87
2021/11/14 01:16:43;;;;;;;36.70;15.13;;;8.50;99.90;;;;;;4947390;29;20028;-87
2021/11/14 01:19:09;;;;;;;30.92;14.32;;;8.50;99.90;;;;;;4947860;29;20043;-87
2021/11/14 01:21:34;;;;;;;35.53;16.48;;;8.60;99.90;;;;;;4931606;29;20054;-87
2021/11/14 01:24:00;;;;;;;33.25;15.43;;;8.50;99.90;;;;;;4947882;29;20492;-87
2021/11/14 01:26:29;;;;;;;32.83;15.18;;;8.60;99.90;;;;;;4931544;29;20055;-87
2021/11/14 01:28:55;;;;;;;34.28;15.77;;;8.50;99.90;;;;;;4947607;29;20103;-87
2021/11/14 01:31:21;;;;;;;34.70;14.48;;;8.60;99.90;;;;;;4947613;29;20032;-87
2021/11/14 01:33:46;;;;;;;36.53;17.17;;;8.60;99.90;;;;;;4947524;29;20099;-87
2021/11/14 01:36:12;;;;;;;36.60;15.52;;;8.60;99.90;;;;;;4947492;29;20067;-87
2021/11/14 01:38:37;;;;;;;44.95;17.90;;;8.60;99.90;;;;;;4947336;29;20040;-88
2021/11/14 01:41:10;;;;;;;28.38;14.32;;;8.60;99.90;;;;;;4947551;29;20036;-87
2021/11/14 01:43:40;;;;;;;41.08;18.40;;;8.60;99.90;;;;;;4947543;29;20035;-87
2021/11/14 01:46:06;;;;;;;;;;;8.60;99.90;;;;;;4947804;29;20062;-87
2021/11/14 01:48:33;;;;;;;36.67;15.80;;;8.60;99.90;;;;;;4946998;29;19918;-88
2021/11/14 01:50:59;;;;;;;27.48;14.05;;;8.60;99.90;;;;;;4947051;29;20040;-88
2021/11/14 01:53:25;;;;;;;36.35;17.42;;;8.60;99.90;;;;;;4947314;29;20036;-88
2021/11/14 01:55:51;;;;;;;35.97;14.88;;;8.60;99.90;;;;;;4947122;29;20038;-88
2021/11/14 01:58:20;;;;;;;41.83;17.95;;;8.60;99.90;;;;;;4947079;29;20107;-88
2021/11/14 02:00:59;;;;;;;44.72;20.15;;;8.50;99.90;;;;;;4947442;29;20047;-88
2021/11/14 02:03:28;;;;;;;30.92;14.48;;;8.50;99.90;;;;;;4947211;29;20035;-88
2021/11/14 02:05:54;;;;;;;37.80;16.42;;;8.60;99.90;;;;;;4931324;29;20032;-88
2021/11/14 02:08:20;;;;;;;36.47;16.60;;;8.60;99.90;;;;;;4946935;29;20079;-88
2021/11/14 02:10:46;;;;;;;29.92;14.05;;;8.60;99.90;;;;;;4947179;29;20042;-88
2021/11/14 02:13:13;;;;;;;44.42;18.58;;;8.60;99.90;;;;;;4947031;29;20036;-88
2021/11/14 02:15:40;;;;;;;38.28;14.98;;;8.60;99.90;;;;;;4946935;29;20090;-88
2021/11/14 02:18:08;;;;;;;41.10;17.35;;;8.50;99.90;;;;;;4947103;29;20046;-88
2021/11/14 02:20:34;;;;;;;40.17;17.52;;;8.60;99.90;;;;;;4915347;29;20038;-88
2021/11/14 02:23:00;;;;;;;37.20;15.00;;;8.60;99.90;;;;;;4947206;29;20055;-87
2021/11/14 02:25:26;;;;;;;44.15;18.88;;;8.60;99.90;;;;;;4946929;29;20515;-88
2021/11/14 02:27:54;;;;;;;38.50;17.45;;;8.60;99.90;;;;;;4947015;29;20099;-87
2021/11/14 02:30:21;;;;;;;34.17;16.67;;;8.60;99.90;;;;;;4947323;29;20071;-88
2021/11/14 02:32:48;;;;;;;35.67;14.75;;;8.60;99.90;;;;;;4946890;29;20028;-88
2021/11/14 02:35:15;;;;;;;33.58;15.45;;;8.60;99.90;;;;;;4946965;29;20035;-87
2021/11/14 02:37:43;;;;;;;32.40;14.93;;;8.60;99.90;;;;;;4946604;29;20115;-88
2021/11/14 02:40:10;;;;;;;34.28;15.35;;;8.60;99.90;;;;;;4950604;29;20091;-88
2021/11/14 02:42:36;;;;;;;33.35;14.52;;;8.60;99.90;;;;;;4950446;29;20059;-87
2021/11/14 02:45:05;;;;;;;26.63;12.05;;;8.60;99.90;;;;;;4950824;29;20032;-87
2021/11/14 02:47:31;;;;;;;31.83;14.43;;;8.60;99.90;;;;;;4951479;29;20051;-88
2021/11/14 02:49:56;;;;;;;34.20;16.35;;;8.60;99.90;;;;;;4951451;29;20449;-87
2021/11/14 02:52:22;;;;;;;38.70;17.08;;;8.70;99.90;;;;;;4951234;29;20127;-88
2021/11/14 02:54:48;;;;;;;37.55;17.33;;;8.70;99.90;;;;;;4950467;29;20091;-87
2021/11/14 02:57:13;;;;;;;39.22;16.33;;;8.70;99.90;;;;;;4950466;29;20117;-87
2021/11/14 02:59:39;;;;;;;41.08;16.75;;;8.70;99.90;;;;;;4950513;29;20036;-88
2021/11/14 03:02:05;;;;;;;38.47;16.60;;;8.70;99.90;;;;;;4950231;29;20031;-87
2021/11/14 03:04:31;;;;;;;37.25;16.20;;;8.70;99.90;;;;;;4950046;29;20028;-87
2021/11/14 03:06:59;;;;;;;45.63;19.67;;;8.70;99.90;;;;;;4934253;29;20028;-88
2021/11/14 03:09:26;;;;;;;42.03;17.90;;;8.70;99.90;;;;;;4934223;29;20031;-88
2021/11/14 03:11:53;;;;;;;40.58;16.95;;;8.70;99.90;;;;;;4934245;29;20054;-87
2021/11/14 03:14:19;;;;;;;35.38;17.15;;;8.70;99.90;;;;;;4934306;29;20054;-88
2021/11/14 03:16:46;;;;;;;31.20;13.35;;;8.70;99.90;;;;;;4949670;29;20036;-87
2021/11/14 03:19:13;;;;;;;44.95;19.25;;;8.70;99.90;;;;;;4934314;29;20039;-88
2021/11/14 03:21:38;;;;;;;41.50;18.30;;;8.80;99.90;;;;;;4934083;29;20035;-87
2021/11/14 03:24:05;;;;;;;35.92;16.73;;;8.80;99.90;;;;;;4934163;29;20091;-88
2021/11/14 03:26:31;;;;;;;37.33;17.50;;;8.70;99.90;;;;;;4949747;29;20082;-87
2021/11/14 03:28:57;;;;;;;41.92;17.60;;;8.80;99.90;;;;;;4933992;29;20040;-88
2021/11/14 03:31:27;;;;;;;36.58;15.95;;;8.80;99.90;;;;;;4949731;29;20028;-88
2021/11/14 03:33:56;;;;;;;41.35;18.30;;;8.80;99.90;;;;;;4949588;29;20031;-88
2021/11/14 03:36:22;;;;;;;34.80;15.82;;;8.80;99.90;;;;;;4949424;29;20038;-88
2021/11/14 03:38:51;;;;;;;43.15;19.20;;;8.80;99.90;;;;;;4949481;29;20044;-88
2021/11/14 03:41:21;;;;;;;38.43;18.00;;;8.80;99.90;;;;;;4949719;29;20031;-88
2021/11/14 03:43:48;;;;;;;39.00;17.90;;;8.80;99.90;;;;;;4949919;29;20079;-88
2021/11/14 03:46:14;;;;;;;43.72;19.92;;;8.80;99.90;;;;;;4949341;29;20043;-88
2021/11/14 03:48:41;;;;;;;40.10;18.95;;;8.80;99.90;;;;;;4949099;29;20056;-88
2021/11/14 03:51:08;;;;;;;39.90;19.40;;;8.90;99.90;;;;;;4948366;29;20039;-87
2021/11/14 03:53:34;;;;;;;41.30;19.85;;;8.90;99.90;;;;;;4949679;29;20090;-87
2021/11/14 03:56:00;;;;;;;44.08;19.48;;;8.80;99.90;;;;;;4949117;29;20107;-88
2021/11/14 03:58:25;;;;;;;41.03;18.42;;;8.90;99.90;;;;;;4949295;29;20099;-88
2021/11/14 04:00:56;;;;;;;44.97;19.67;;;8.80;99.90;;;;;;4935242;29;20036;-88
2021/11/14 04:03:22;;;;;;;;;;;8.80;99.90;;;;;;4930568;29;20127;-88
2021/11/14 04:05:48;;;;;;;32.40;13.80;;;8.80;99.90;;;;;;4930040;29;19911;-87
2021/11/14 04:08:20;;;;;;;36.00;16.67;;;8.80;99.90;;;;;;4930350;29;20064;-88
2021/11/14 04:10:48;;;;;;;37.88;17.40;;;8.80;99.90;;;;;;4914591;29;20548;-88
2021/11/14 04:13:15;;;;;;;32.72;16.15;;;8.80;99.90;;;;;;4930170;29;20040;-88
2021/11/14 04:15:41;;;;;;;41.90;18.30;;;8.80;99.90;;;;;;4929776;29;20032;-88
2021/11/14 04:18:07;;;;;;;36.78;18.20;;;8.80;99.90;;;;;;4929916;29;20047;-88
2021/11/14 04:20:36;;;;;;;37.72;17.77;;;8.80;99.90;;;;;;4929973;29;20024;-88
2021/11/14 04:23:03;;;;;;;39.42;17.23;;;8.80;99.90;;;;;;4914511;29;20035;-87
2021/11/14 04:25:29;;;;;;;34.22;17.10;;;8.80;99.90;;;;;;4929645;29;20024;-87
2021/11/14 04:27:56;;;;;;;41.95;19.17;;;8.80;99.90;;;;;;4929973;29;20038;-88
2021/11/14 04:30:22;;;;;;;35.22;16.60;;;8.80;99.90;;;;;;4939472;29;20055;-87
2021/11/14 04:32:48;;;;;;;39.78;17.60;;;8.70;99.90;;;;;;4948669;29;20461;-87
2021/11/14 04:35:14;;;;;;;40.30;18.27;;;8.80;99.90;;;;;;4948849;29;20032;-88
2021/11/14 04:37:40;;;;;;;38.17;17.02;;;8.80;99.90;;;;;;4949989;29;20046;-87
2021/11/14 04:40:07;;;;;;;40.22;17.92;;;8.80;99.90;;;;;;4949870;29;20031;-87
2021/11/14 04:42:34;;;;;;;38.58;18.60;;;8.70;99.90;;;;;;4948672;29;20039;-87
2021/11/14 04:45:00;;;;;;;37.15;18.17;;;8.80;99.90;;;;;;4948360;29;20039;-88
2021/11/14 04:47:25;;;;;;;37.35;18.55;;;8.70;99.90;;;;;;4948162;29;20104;-87
2021/11/14 04:49:51;;;;;;;38.55;18.23;;;8.70;99.90;;;;;;4948151;29;20043;-87
2021/11/14 04:52:17;;;;;;;39.67;18.58;;;8.70;99.90;;;;;;4948352;29;20495;-87
2021/11/14 04:54:43;;;;;;;41.45;18.00;;;8.70;99.90;;;;;;4932596;29;20099;-87
2021/11/14 04:57:09;;;;;;;38.47;17.52;;;8.70;99.90;;;;;;4945564;29;20493;-87
2021/11/14 04:59:34;;;;;;;37.95;17.63;;;8.70;99.90;;;;;;4929239;29;20036;-87
2021/11/14 05:02:00;;;;;;;37.13;18.52;;;8.70;99.90;;;;;;4928581;29;20485;-87
2021/11/14 05:04:26;;;;;;;37.67;18.85;;;8.70;99.90;;;;;;4929070;29;20024;-88
2021/11/14 05:06:51;;;;;;;37.78;18.13;;;8.70;99.90;;;;;;4912984;29;20157;-88
2021/11/14 05:09:17;;;;;;;35.15;16.88;;;8.70;99.90;;;;;;4929080;29;20035;-87
2021/11/14 05:11:43;;;;;;;40.17;19.58;;;8.70;99.90;;;;;;4929068;29;20043;-88
2021/11/14 05:14:09;;;;;;;35.67;17.50;;;8.70;99.90;;;;;;4928968;29;20039;-88
2021/11/14 05:16:34;;;;;;;36.08;16.95;;;8.70;99.90;;;;;;4928472;29;20044;-87
2021/11/14 05:19:00;;;;;;;34.80;16.88;;;8.60;99.90;;;;;;4928761;29;20047;-88
2021/11/14 05:21:26;;;;;;;30.30;15.55;;;8.60;99.90;;;;;;4912885;29;20096;-87
2021/11/14 05:23:52;;;;;;;34.47;17.48;;;8.60;99.90;;;;;;4913044;29;20036;-88
2021/11/14 05:26:17;;;;;;;34.22;16.40;;;8.60;99.90;;;;;;4912890;29;20095;-86
2021/11/14 05:28:43;;;;;;;35.33;17.63;;;8.60;99.90;;;;;;4926927;29;20042;-87
2021/11/14 05:31:09;;;;;;;36.58;16.83;;;8.60;99.90;;;;;;4947820;29;20044;-88
2021/11/14 05:33:35;;;;;;;35.67;16.92;;;8.60;99.90;;;;;;4947531;29;20095;-87
2021/11/14 05:36:01;;;;;;;35.72;17.00;;;8.60;99.90;;;;;;4947271;29;20049;-88
2021/11/14 05:38:27;;;;;;;35.97;18.35;;;8.60;99.90;;;;;;4947594;29;20552;-87
2021/11/14 05:40:52;;;;;;;36.70;18.70;;;8.60;99.90;;;;;;4947424;29;20385;-88
2021/11/14 05:43:18;;;;;;;38.08;18.02;;;8.60;99.90;;;;;;4947424;29;20042;-88
2021/11/14 05:46:04;;;;;;;37.88;16.52;;;8.60;99.90;;;;;;4947342;29;20040;-87
2021/11/14 05:48:29;;;;;;;37.83;17.48;;;8.60;99.90;;;;;;4889643;29;20593;-87
2021/11/14 05:50:58;;;;;;;36.78;17.45;;;8.60;99.90;;;;;;4889748;29;20046;-87
2021/11/14 05:53:23;;;;;;;40.70;17.48;;;8.60;99.90;;;;;;4889909;29;20052;-88
2021/11/14 05:55:49;;;;;;;38.85;18.05;;;8.60;99.90;;;;;;4877767;29;20476;-88
2021/11/14 05:58:19;;;;;;;36.05;17.70;;;8.60;99.90;;;;;;4852406;29;20046;-87
2021/11/14 06:04:22;;;;;;;38.05;16.85;;;8.60;99.90;;;;;;4868588;29;20042;-87
2021/11/14 06:06:15;;;;;;;33.28;15.88;;;8.60;99.90;;;;;;4878334;29;20052;-87
2021/11/14 06:08:40;;;;;;;35.15;17.67;;;8.60;99.90;;;;;;4889530;29;20069;-87
2021/11/14 06:11:06;;;;;;;32.25;16.25;;;8.60;99.90;;;;;;4889524;29;20033;-86
2021/11/14 06:13:32;;;;;;;28.95;14.52;;;8.60;99.90;;;;;;4890662;29;20041;-87
2021/11/14 06:15:58;;;;;;;34.95;15.65;;;8.60;99.90;;;;;;4893421;29;20065;-86
2021/11/14 06:18:25;;;;;;;29.92;15.77;;;8.60;99.90;;;;;;4881630;29;20058;-87
2021/11/14 06:20:51;;;;;;;34.88;15.43;;;8.60;99.90;;;;;;4874729;29;20213;-86
2021/11/14 06:23:17;;;;;;;42.15;17.75;;;8.60;99.90;;;;;;4874646;29;20048;-87
2021/11/14 06:25:42;;;;;;;37.58;17.17;;;8.60;99.90;;;;;;4906515;29;20036;-87
2021/11/14 06:28:09;;;;;;;36.40;16.92;;;8.60;99.90;;;;;;4931932;29;20055;-87
2021/11/14 06:30:35;;;;;;;38.97;17.00;;;8.60;99.90;;;;;;4931642;29;20032;-86
2021/11/14 06:33:01;;;;;;;38.28;17.17;;;8.60;99.90;;;;;;4931606;29;20047;-87
2021/11/14 06:35:27;;;;;;;34.33;16.20;;;8.60;99.90;;;;;;4931459;29;20040;-87
2021/11/14 06:37:52;;;;;;;41.90;18.88;;;8.60;99.90;;;;;;4931395;29;20051;-87
2021/11/14 06:40:18;;;;;;;36.00;17.33;;;8.60;99.90;;;;;;4931976;29;20032;-88
2021/11/14 06:42:44;;;;;;;37.75;16.67;;;8.60;99.90;;;;;;4931598;29;20482;-88
2021/11/14 06:45:10;;;;;;;34.88;15.82;;;8.60;99.90;;;;;;4931448;29;20036;-87
2021/11/14 06:47:37;;;;;;;32.58;15.52;;;8.60;99.90;;;;;;4935532;29;20036;-86
2021/11/14 06:50:05;;;;;;;34.47;15.73;;;8.60;99.90;;;;;;4950553;29;20031;-87
2021/11/14 06:52:34;;;;;;;36.53;16.90;;;8.70;99.90;;;;;;4950042;29;20046;-88
2021/11/14 06:54:59;;;;;;;35.47;15.77;;;8.70;99.90;;;;;;4948628;29;20027;-87
2021/11/14 06:57:26;;;;;;;38.35;17.63;;;8.60;99.90;;;;;;4933955;29;20476;-87
2021/11/14 06:59:52;;;;;;;34.72;17.67;;;8.60;99.90;;;;;;4919409;29;20051;-86
2021/11/14 07:02:18;;;;;;;39.28;17.77;;;8.70;99.90;;;;;;4930548;29;20040;-88
2021/11/14 07:04:44;;;;;;;30.00;15.25;;;8.60;99.90;;;;;;4932302;29;20032;-88
2021/11/14 07:07:09;;;;;;;37.13;17.73;;;8.60;99.90;;;;;;4930957;29;20040;-88
2021/11/14 07:09:35;;;;;;;36.35;17.17;;;8.70;99.90;;;;;;4931037;29;20032;-88
2021/11/14 07:12:01;;;;;;;34.47;16.15;;;8.60;99.90;;;;;;4915566;29;20032;-88
2021/11/14 07:14:27;;;;;;;37.72;17.05;;;8.70;99.90;;;;;;4930799;29;20068;-87
2021/11/14 07:16:53;;;;;;;32.63;15.52;;;8.70;99.90;;;;;;4930726;29;20043;-88
2021/11/14 07:19:23;;;;;;;37.72;17.40;;;8.70;99.90;;;;;;4930966;29;20115;-88
2021/11/14 07:21:49;;;;;;;40.83;17.58;;;8.60;99.90;;;;;;4915272;29;20036;-88
2021/11/14 07:24:15;;;;;;;37.80;16.05;;;8.70;99.90;;;;;;4901038;29;20051;-89
2021/11/14 07:26:41;;;;;;;35.78;15.68;;;8.70;99.90;;;;;;4930446;29;20032;-88
2021/11/14 07:29:07;;;;;;;32.92;14.98;;;8.70;99.90;;;;;;4930685;29;20035;-88
2021/11/14 07:31:33;;;;;;;38.47;16.88;;;8.70;99.90;;;;;;4930223;29;20099;-88
2021/11/14 07:33:59;;;;;;;36.33;15.40;;;8.70;99.90;;;;;;4941695;29;20512;-88
2021/11/14 07:36:25;;;;;;;35.65;15.18;;;8.70;99.90;;;;;;4949028;29;20091;-88
2021/11/14 07:38:51;;;;;;;36.42;14.98;;;8.70;99.90;;;;;;4948928;29;20039;-89
2021/11/14 07:41:17;;;;;;;39.17;17.27;;;8.70;99.90;;;;;;4949162;29;20067;-88
2021/11/14 07:43:43;;;;;;;36.50;17.05;;;8.60;99.90;;;;;;4948844;29;20060;-88
2021/11/14 07:46:09;;;;;;;34.38;16.35;;;8.70;99.90;;;;;;4948149;29;20031;-88
2021/11/14 07:48:35;;;;;;;42.08;18.35;;;8.70;99.90;;;;;;4948381;29;20480;-87
2021/11/14 07:51:02;;;;;;;34.72;15.40;;;8.70;99.90;;;;;;4946631;29;20035;-88
2021/11/14 07:53:28;;;;;;;39.38;16.15;;;8.70;99.90;;;;;;4948591;29;20042;-86
2021/11/14 07:55:55;;;;;;;41.45;17.33;;;8.70;99.90;;;;;;4948703;29;20055;-88
2021/11/14 07:58:21;;;;;;;38.45;16.20;;;8.70;99.90;;;;;;4948455;29;20040;-88
2021/11/14 08:00:47;;;;;;;36.33;15.75;;;8.70;99.90;;;;;;4948433;29;20031;-89
2021/11/14 08:03:13;;;;;;;35.72;14.88;;;8.80;99.90;;;;;;4948680;29;20035;-88
2021/11/14 08:05:40;;;;;;;42.08;17.33;;;8.80;99.90;;;;;;4938454;29;20028;-87
2021/11/14 08:08:06;;;;;;;34.08;14.27;;;8.80;99.90;;;;;;4929144;29;20036;-88
2021/11/14 08:10:33;;;;;;;34.85;14.07;;;8.80;99.90;;;;;;4929506;29;20048;-89
2021/11/14 08:12:59;;;;;;;33.20;13.90;;;8.80;99.90;;;;;;4929463;29;20037;-89
2021/11/14 08:15:25;;;;;;;37.17;14.80;;;8.80;99.90;;;;;;4929334;29;20028;-88
2021/11/14 08:17:51;;;;;;;36.10;14.05;;;8.80;99.90;;;;;;4929087;29;20126;-87
2021/11/14 08:20:17;;;;;;;38.78;14.40;;;8.80;99.90;;;;;;4913446;29;20126;-87
2021/11/14 08:22:44;;;;;;;35.70;14.15;;;8.80;99.90;;;;;;4913619;29;20047;-88
2021/11/14 08:25:12;;;;;;;33.97;13.50;;;8.80;99.90;;;;;;4928795;29;20100;-87
2021/11/14 08:27:38;;;;;;;35.50;14.82;;;8.90;99.90;;;;;;4913238;29;20612;-88
2021/11/14 08:30:10;;;;;;;30.35;11.35;;;8.90;99.90;;;;;;4929208;29;20036;-88
2021/11/14 08:32:36;;;;;;;35.40;14.13;;;8.90;99.90;;;;;;4928979;29;20032;-88
2021/11/14 08:35:04;;;;;;;33.88;14.05;;;8.90;99.90;;;;;;4928857;29;20059;-88
2021/11/14 08:37:30;;;;;;;31.90;11.95;;;8.90;99.90;;;;;;4928176;29;20049;-87
2021/11/14 08:39:56;;;;;;;36.85;14.98;;;8.90;99.90;;;;;;4928818;29;20036;-87
2021/11/14 08:42:22;;;;;;;33.55;13.13;;;8.90;99.90;;;;;;4928870;29;20036;-87
2021/11/14 08:44:48;;;;;;;33.50;13.50;;;8.90;99.90;;;;;;4928698;29;20036;-88
2021/11/14 08:47:14;;;;;;;39.22;14.48;;;8.90;99.90;;;;;;4930016;29;20095;-87
2021/11/14 08:49:40;;;;;;;39.17;15.05;;;8.90;99.90;;;;;;4947438;29;20047;-87
2021/11/14 08:52:07;;;;;;;33.55;13.75;;;8.90;99.90;;;;;;4947867;29;20042;-88
2021/11/14 08:54:33;;;;;;;35.60;13.60;;;9.00;99.90;;;;;;4947664;29;20034;-87
2021/11/14 08:56:59;;;;;;;32.85;13.32;;;9.00;99.90;;;;;;4947570;29;20039;-89
2021/11/14 08:59:28;;;;;;;31.77;12.38;;;9.00;99.90;;;;;;4931828;29;20032;-87
2021/11/14 09:01:54;;;;;;;29.65;11.57;;;9.10;99.90;;;;;;4947802;29;20059;-88
2021/11/14 09:04:20;;;;;;;33.55;13.30;;;9.00;99.90;;;;;;4947264;29;20050;-87
2021/11/14 09:06:45;;;;;;;28.73;12.18;;;9.00;99.90;;;;;;4928995;29;20032;-86
2021/11/14 09:09:11;;;;;;;27.48;10.48;;;9.00;99.90;;;;;;4929595;29;20558;-85
2021/11/14 09:11:43;;;;;;;33.75;13.80;;;9.00;99.90;;;;;;4928322;29;20032;-86
2021/11/14 09:14:10;;;;;;;30.27;12.07;;;9.00;99.90;;;;;;4928313;29;20055;-87
2021/11/14 09:16:36;;;;;;;32.40;13.02;;;9.00;99.90;;;;;;4928082;29;20135;-88
2021/11/14 09:19:04;;;;;;;31.00;12.27;;;9.10;99.90;;;;;;4928133;29;20038;-87
2021/11/14 09:21:29;;;;;;;33.20;12.95;;;9.10;99.90;;;;;;4926248;29;20123;-88
2021/11/14 09:23:55;;;;;;;33.33;12.50;;;9.10;99.90;;;;;;4912133;29;20040;-88
2021/11/14 09:26:20;;;;;;;30.20;11.40;;;9.10;99.90;;;;;;4912075;29;20090;-88
2021/11/14 09:28:46;;;;;;;30.73;11.65;;;9.20;99.90;;;;;;4912229;29;20480;-87
2021/11/14 09:31:12;;;;;;;32.22;11.52;;;9.20;99.90;;;;;;4911594;29;20040;-88
2021/11/14 09:33:39;;;;;;;27.45;10.00;;;9.20;99.90;;;;;;4912301;29;20047;-91
2021/11/14 09:36:06;;;;;;;29.08;10.73;;;9.20;99.90;;;;;;4912053;29;20035;-88
2021/11/14 09:38:32;;;;;;;31.70;11.30;;;9.20;99.90;;;;;;4912153;29;20044;-88
2021/11/14 09:40:59;;;;;;;26.00;10.55;;;9.20;99.90;;;;;;4896405;29;20056;-88
2021/11/14 09:43:28;;;;;;;27.98;10.43;;;9.30;99.90;;;;;;4912263;29;20067;-88
2021/11/14 09:46:14;;;;;;;30.50;10.38;;;9.30;99.90;;;;;;4911732;29;20036;-87
2021/11/14 09:48:39;;;;;;;34.00;10.93;;;9.30;99.90;;;;;;4844228;29;20056;-87
2021/11/14 09:51:06;;;;;;;34.05;13.75;;;9.30;99.90;;;;;;4851408;29;20042;-88
2021/11/14 09:53:35;;;;;;;28.15;12.40;;;9.30;99.90;;;;;;4837788;29;20047;-89
2021/11/14 09:56:03;;;;;;;36.90;13.63;;;9.40;99.90;;;;;;4833566;29;20066;-88
2021/11/14 09:58:28;;;;;;;31.67;13.05;;;9.40;99.90;;;;;;4818703;29;20136;-88
2021/11/14 10:00:55;;;;;;;32.88;12.10;;;9.40;99.90;;;;;;4840668;29;20114;-89
2021/11/14 10:03:21;;;;;;;29.52;11.05;;;9.50;99.90;;;;;;4853448;29;20237;-88
2021/11/14 10:05:51;;;;;;;28.30;11.85;;;9.50;99.90;;;;;;4852655;29;20090;-89
2021/11/14 10:08:19;;;;;;;27.52;9.95;;;9.50;99.90;;;;;;4820012;29;20311;-89
2021/11/14 10:10:57;;;;;;;31.92;12.70;;;9.50;99.90;;;;;;4818436;29;20043;-88
2021/11/14 10:13:31;;;;;;;35.15;12.45;;;9.50;99.90;;;;;;4818375;29;20054;-88
2021/11/14 10:16:16;;;;;;;33.53;14.10;;;9.50;99.90;;;;;;4833090;29;20030;-89
2021/11/14 10:18:57;;;;;;;30.00;13.60;;;9.60;99.90;;;;;;4818060;29;20062;-89
2021/11/14 10:21:24;;;;;;;32.80;14.32;;;9.60;99.90;;;;;;4841050;29;20034;-89
2021/11/14 10:23:51;;;;;;;32.15;14.30;;;9.60;99.90;;;;;;4851686;29;20038;-88
2021/11/14 10:26:18;;;;;;;30.88;12.40;;;9.70;99.90;;;;;;4920529;29;20040;-87
2021/11/14 10:28:48;;;;;;;33.42;13.23;;;9.70;99.90;;;;;;4946493;29;20036;-88
2021/11/14 10:31:21;;;;;;;34.70;14.82;;;9.70;99.90;;;;;;4946345;29;20028;-88
2021/11/14 10:33:52;;;;;;;36.58;15.68;;;9.70;99.90;;;;;;4946230;29;20038;-88
2021/11/14 10:36:19;;;;;;;41.30;16.67;;;9.70;99.90;;;;;;4928077;29;20059;-87
2021/11/14 10:38:45;;;;;;;45.33;18.13;;;9.60;99.90;;;;;;4927416;29;20044;-89
2021/11/14 10:41:12;;;;;;;34.67;14.45;;;9.70;99.90;;;;;;4927318;29;20063;-88
2021/11/14 10:43:40;;;;;;;36.75;15.68;;;9.80;99.90;;;;;;4927379;29;20042;-89
2021/11/14 10:46:24;;;;;;;30.45;13.75;;;9.70;99.90;;;;;;4927084;29;20032;-88
2021/11/14 10:48:50;;;;;;;39.03;15.80;;;9.80;99.90;;;;;;4940897;29;20610;-88
2021/11/14 10:51:16;;;;;;;40.65;16.35;;;9.80;99.90;;;;;;4946070;29;20035;-89
2021/11/14 10:53:47;;;;;;;40.17;17.92;;;9.80;99.90;;;;;;4946389;29;20070;-88
2021/11/14 10:56:14;;;;;;;37.85;15.73;;;9.80;99.90;;;;;;4946308;29;20039;-88
2021/11/14 10:58:41;;;;;;;37.72;15.75;;;9.80;99.90;;;;;;4946202;29;20103;-89
2021/11/14 11:01:12;;;;;;;40.80;16.48;;;9.80;99.90;;;;;;4915909;29;20074;-89
2021/11/14 11:03:49;;;;;;;38.10;16.70;;;9.80;99.90;;;;;;4950124;29;20051;-89
2021/11/14 11:06:26;;;;;;;35.10;16.02;;;9.80;99.90;;;;;;4953726;29;20032;-90
2021/11/14 11:09:07;;;;;;;32.50;13.45;;;9.90;99.90;;;;;;4965060;29;20032;-91
2021/11/14 11:11:54;;;;;;;38.53;15.13;;;10.00;99.90;;;;;;4944244;29;20491;-91
2021/11/14 11:14:26;;;;;;;37.53;16.20;;;10.00;99.90;;;;;;4933450;29;20036;-91
2021/11/14 11:16:52;;;;;;;38.80;16.25;;;10.00;99.90;;;;;;4933384;29;20032;-90
2021/11/14 11:19:24;;;;;;;31.23;14.13;;;10.10;99.90;;;;;;4933534;29;20050;-90
2021/11/14 11:21:50;;;;;;;38.38;15.00;;;10.10;99.90;;;;;;4933061;29;20068;-90
2021/11/14 11:24:23;;;;;;;36.10;14.88;;;10.10;99.90;;;;;;4933446;29;20031;-90
2021/11/14 11:27:00;;;;;;;37.17;14.60;;;10.10;99.90;;;;;;4933342;29;20082;-90
2021/11/14 11:29:27;;;;;;;38.15;16.92;;;10.10;99.90;;;;;;4933473;29;20042;-90
2021/11/14 11:31:53;;;;;;;38.13;15.18;;;10.10;99.90;;;;;;4933144;29;20045;-91
2021/11/14 11:34:22;;;;;;;35.00;15.55;;;10.10;99.90;;;;;;4949088;29;20027;-90
2021/11/14 11:36:50;;;;;;;38.72;17.38;;;10.20;99.90;;;;;;4949004;29;20055;-91
2021/11/14 11:39:17;;;;;;;39.50;17.15;;;10.20;99.90;;;;;;4949418;29;20040;-90
2021/11/14 11:41:44;;;;;;;39.10;16.25;;;10.20;99.90;;;;;;4949102;29;20202;-91
2021/11/14 11:44:10;;;;;;;41.67;17.73;;;10.10;99.90;;;;;;4949140;29;20035;-90
2021/11/14 11:46:39;;;;;;;37.70;16.88;;;10.20;99.90;;;;;;4960242;23;20012;-90
2021/11/14 11:49:09;;;;;;;35.35;15.68;;;10.10;99.90;;;;;;4990298;28;20054;-90
2021/11/14 11:51:44;;;;;;;37.35;15.38;;;10.10;99.90;;;;;;4991307;28;20098;-90
2021/11/14 11:54:11;;;;;;;33.95;15.88;;;10.20;99.90;;;;;;4991217;28;20038;-90
2021/11/14 11:56:56;;;;;;;33.30;15.70;;;10.10;99.90;;;;;;4990835;28;20034;-90
2021/11/14 11:59:36;;;;;;;40.33;16.67;;;10.20;99.90;;;;;;5008458;28;20038;-89
2021/11/14 12:02:20;;;;;;;39.42;17.05;;;10.10;99.90;;;;;;4974457;28;20037;-90
2021/11/14 12:04:51;;;;;;;36.42;15.90;;;10.20;99.90;;;;;;4990912;28;20043;-91
2021/11/14 12:07:20;;;;;;;32.22;15.05;;;10.20;99.90;;;;;;4974867;28;20080;-90
2021/11/14 12:09:53;;;;;;;37.00;15.02;;;10.30;99.90;;;;;;4974848;28;20133;-89
2021/11/14 12:12:24;;;;;;;40.50;18.55;;;10.30;99.90;;;;;;4990201;28;20034;-91
2021/11/14 12:15:16;;;;;;;35.92;15.55;;;10.30;99.90;;;;;;4990679;28;20038;-88
2021/11/14 12:17:54;;;;;;;41.00;17.88;;;10.30;99.90;;;;;;4970954;28;20070;-89
2021/11/14 12:20:30;;;;;;;39.42;16.83;;;10.30;99.90;;;;;;4955233;28;20027;-90
2021/11/14 12:23:04;;;;;;;34.35;15.48;;;10.30;99.90;;;;;;4970795;28;20045;-89
2021/11/14 12:25:40;;;;;;;39.42;16.92;;;10.30;99.90;;;;;;4971127;28;20031;-89
2021/11/14 12:28:18;;;;;;;39.47;16.77;;;10.30;99.90;;;;;;4970837;28;20035;-91
2021/11/14 12:31:03;;;;;;;39.58;17.60;;;10.40;99.90;;;;;;4979180;28;20475;-91
2021/11/14 12:33:33;;;;;;;46.08;19.38;;;10.30;99.90;;;;;;4974144;28;20411;-91
2021/11/14 12:36:10;;;;;;;37.42;16.70;;;10.40;99.90;;;;;;4990119;28;20097;-91
2021/11/14 12:38:37;;;;;;;41.20;17.63;;;10.50;99.90;;;;;;4989946;28;20042;-90
2021/11/14 12:41:09;;;;;;;36.17;15.55;;;10.40;99.90;;;;;;4989915;28;20030;-88